Hillsdale, Michigan
Current Conditions -  °F | °C
As of 8:14 AM on Tuesday 21 Oct 2014 (Local Time) from KJYM Reporting Station
Haze Haze  
Wind Chill: 42°   Ceiling: 900
Heat Index: 46°   Visibility: 2.5mi
Dew Point: 46°   Wind: 7mph
Humidity: 99%   Direction: 330°NNW
Pressure: 29.99"   Gusts: NA
Location:  41.92°N, 84.63°W
Report Text: KJYM 211214Z AUTO 33006KT 2 1/2SM BR BKN009 OVC013 08/08 A2999 RMK AO2 T00780077
Loading
Personal Weather Stations






























Interactive Weather Map New forecast layout! Learn more

10-Day Weather Forecast

Advertisements
Track Severe Weather on mobile